Time;durP1;ratioP1;P1;durP2;ratioP2;P2;SDS_P1;SDS_P2;PMS_P1;PMS_P2;Temp;Humidity;BMP_temperature;BMP_pressure;BME280_temperature;BME280_humidity;BME280_pressure;Samples;Min_cycle;Max_cycle;Signal;HPM_P1;HPM_P2
2023/08/03 08:59:18;;;;;;;6.50;1.92;;;;;;;15.83;100.00;99526.03;5069127;27;20769;-74
2023/08/03 09:01:51;;;;;;;6.90;1.98;;;;;;;15.85;100.00;99542.91;5065775;28;20044;-74
2023/08/03 09:04:46;;;;;;;5.75;1.85;;;;;;;15.82;100.00;99540.75;5069343;28;20060;-74
2023/08/03 09:07:16;;;;;;;4.38;1.67;;;;;;;15.74;100.00;99551.16;5046765;28;20055;-79
2023/08/03 09:09:42;;;;;;;4.18;1.67;;;;;;;15.74;100.00;99553.09;5068572;28;20476;-75
2023/08/03 09:12:07;;;;;;;5.20;1.63;;;;;;;15.75;100.00;99558.25;5069959;28;20031;-78
2023/08/03 09:14:48;;;;;;;2.95;1.40;;;;;;;15.77;100.00;99566.97;5057879;28;20059;-78
2023/08/03 09:17:22;;;;;;;6.00;1.60;;;;;;;15.86;100.00;99574.53;5049694;28;20025;-76
2023/08/03 09:19:48;;;;;;;4.75;1.25;;;;;;;15.91;100.00;99585.38;5048103;28;20029;-73
2023/08/03 09:22:18;;;;;;;3.13;1.27;;;;;;;16.00;100.00;99591.81;5049947;28;20031;-71
2023/08/03 09:24:47;;;;;;;2.80;1.08;;;;;;;16.07;100.00;99588.72;5048118;28;20487;-72
2023/08/03 09:27:16;;;;;;;4.35;1.30;;;;;;;16.09;100.00;99600.16;5048843;28;20033;-75
2023/08/03 09:29:42;;;;;;;3.67;1.65;;;;;;;16.10;100.00;99608.06;5049326;28;20025;-74
2023/08/03 09:32:08;;;;;;;3.60;1.50;;;;;;;16.11;100.00;99608.88;5044584;28;20377;-74
2023/08/03 09:34:38;;;;;;;6.68;1.65;;;;;;;16.13;100.00;99621.09;5063405;28;20052;-77
2023/08/03 09:37:04;;;;;;;5.78;1.77;;;;;;;16.16;100.00;99616.19;5071311;28;20029;-74
2023/08/03 09:39:34;;;;;;;7.57;2.03;;;;;;;16.18;100.00;99622.16;5060105;28;20408;-75
2023/08/03 09:42:03;;;;;;;9.23;2.30;;;;;;;16.20;100.00;99645.34;5047864;28;20030;-73
2023/08/03 09:44:29;;;;;;;8.25;2.30;;;;;;;16.17;100.00;99642.34;5049407;28;20124;-75
2023/08/03 09:46:56;;;;;;;8.07;2.15;;;;;;;16.23;100.00;99643.91;5047324;28;20095;-74
2023/08/03 09:49:21;;;;;;;9.57;2.72;;;;;;;16.25;100.00;99650.72;5046602;28;20399;-74
2023/08/03 09:51:50;;;;;;;9.43;2.42;;;;;;;16.32;100.00;99652.28;5047407;28;20029;-76
2023/08/03 09:54:28;;;;;;;26.13;3.92;;;;;;;16.34;100.00;99659.06;5053513;28;20029;-79
2023/08/03 09:56:58;;;;;;;10.68;2.72;;;;;;;16.34;100.00;99669.19;5063753;28;20028;-78
2023/08/03 09:59:28;;;;;;;12.25;2.80;;;;;;;16.33;100.00;99673.03;5048809;28;20376;-76
2023/08/03 10:01:58;;;;;;;12.02;2.75;;;;;;;16.32;100.00;99669.50;5043448;28;20053;-77
2023/08/03 10:04:29;;;;;;;11.52;3.05;;;;;;;16.33;100.00;99676.56;5047722;28;20103;-76
2023/08/03 10:07:01;;;;;;;13.10;3.37;;;;;;;16.41;100.00;99680.53;5047403;28;20033;-73
2023/08/03 10:09:33;;;;;;;10.18;2.70;;;;;;;16.42;100.00;99691.19;5040774;28;20030;-72
2023/08/03 10:12:02;;;;;;;10.95;3.35;;;;;;;16.46;100.00;99675.84;5034586;28;20110;-74
2023/08/03 10:14:32;;;;;;;10.38;3.10;;;;;;;16.54;100.00;99690.75;5028726;28;20044;-75
2023/08/03 10:17:00;;;;;;;10.70;2.75;;;;;;;16.61;100.00;99693.94;5017323;28;20033;-74
2023/08/03 10:19:27;;;;;;;7.60;2.50;;;;;;;16.82;100.00;99693.69;5039941;28;20022;-74
2023/08/03 10:21:53;;;;;;;7.93;2.25;;;;;;;16.96;100.00;99691.03;5051275;28;20030;-77
2023/08/03 10:24:19;;;;;;;9.50;2.80;;;;;;;17.14;100.00;99695.66;5016629;28;20121;-74
2023/08/03 10:26:51;;;;;;;7.53;2.30;;;;;;;17.29;100.00;99702.81;5020406;28;20100;-75
2023/08/03 10:29:37;;;;;;;6.85;2.20;;;;;;;17.34;100.00;99699.19;5037420;28;20049;-76
2023/08/03 10:32:03;;;;;;;5.93;2.00;;;;;;;17.43;100.00;99713.00;5020561;28;20033;-75
2023/08/03 10:34:29;;;;;;;8.98;2.28;;;;;;;17.54;100.00;99714.44;5034748;28;20079;-76
2023/08/03 10:36:56;;;;;;;5.57;1.85;;;;;;;17.62;100.00;99718.41;5033188;28;20037;-73
2023/08/03 10:39:51;;;;;;;7.85;2.13;;;;;;;17.65;100.00;99709.63;5029513;28;20038;-74
2023/08/03 10:42:20;;;;;;;5.07;1.70;;;;;;;17.53;100.00;99721.84;5034846;28;20072;-77
2023/08/03 10:44:45;;;;;;;4.88;2.17;;;;;;;17.54;100.00;99725.38;5034711;28;20025;-73
2023/08/03 10:47:40;;;;;;;7.32;2.22;;;;;;;17.63;100.00;99731.00;5033453;28;20027;-77
2023/08/03 10:50:06;;;;;;;5.68;1.98;;;;;;;17.53;100.00;99735.53;5022949;28;20048;-79
2023/08/03 10:52:32;;;;;;;5.38;2.05;;;;;;;17.58;100.00;99725.63;5030381;28;20030;-76
2023/08/03 10:54:58;;;;;;;8.18;2.55;;;;;;;17.61;100.00;99738.69;5034545;28;20029;-75
2023/08/03 10:57:27;;;;;;;6.97;2.53;;;;;;;17.62;100.00;99753.97;5032713;28;20041;-76
2023/08/03 10:59:54;;;;;;;10.05;2.50;;;;;;;17.64;100.00;99741.63;5035728;28;20271;-76
2023/08/03 11:02:30;;;;;;;8.07;2.63;;;;;;;17.70;100.00;99756.03;5031376;28;20049;-76
2023/08/03 11:05:06;;;;;;;8.73;2.70;;;;;;;17.67;100.00;99756.66;5034474;28;20029;-77
2023/08/03 11:07:37;;;;;;;12.23;2.67;;;;;;;17.55;100.00;99770.78;5031551;28;20083;-75
2023/08/03 11:10:05;;;;;;;9.02;2.50;;;;;;;17.54;100.00;99759.03;5033300;28;20033;-79
2023/08/03 11:12:31;;;;;;;10.75;2.50;;;;;;;17.51;100.00;99773.31;5034490;28;20045;-77
2023/08/03 11:14:57;;;;;;;8.77;2.60;;;;;;;17.52;100.00;99772.19;5033711;28;20033;-77
2023/08/03 11:17:28;;;;;;;11.57;2.95;;;;;;;17.47;100.00;99779.69;5032218;28;20463;-78
2023/08/03 11:19:54;;;;;;;10.68;2.88;;;;;;;17.39;100.00;99774.88;5031506;28;20021;-77
2023/08/03 11:22:23;;;;;;;12.65;3.00;;;;;;;17.26;100.00;99779.16;5033147;28;20030;-78
2023/08/03 11:24:51;;;;;;;6.50;2.47;;;;;;;17.20;100.00;99785.81;5033932;28;20088;-79
2023/08/03 11:27:17;;;;;;;11.43;2.97;;;;;;;17.10;100.00;99798.50;5031475;28;20049;-78
2023/08/03 11:29:43;;;;;;;12.52;3.40;;;;;;;17.03;100.00;99791.78;5020803;28;20384;-79
2023/08/03 11:32:11;;;;;;;11.15;3.50;;;;;;;17.01;100.00;99792.06;5033703;28;20040;-78
2023/08/03 11:34:37;;;;;;;11.30;3.53;;;;;;;17.00;100.00;99804.13;5033428;28;20376;-77
2023/08/03 11:37:03;;;;;;;11.93;3.00;;;;;;;16.99;100.00;99806.03;5031171;28;20041;-76
2023/08/03 11:39:28;;;;;;;11.23;3.40;;;;;;;17.04;100.00;99818.81;5028525;28;20087;-81
2023/08/03 11:41:55;;;;;;;10.80;3.60;;;;;;;17.09;100.00;99826.13;5030736;28;20049;-79
2023/08/03 11:44:24;;;;;;;8.07;2.90;;;;;;;17.09;100.00;99826.13;5027315;28;20124;-78
2023/08/03 11:47:03;;;;;;;8.80;2.75;;;;;;;17.09;100.00;99848.84;5033066;28;20056;-79
2023/08/03 11:49:30;;;;;;;7.93;2.67;;;;;;;17.10;100.00;99844.97;5032830;28;20033;-75
2023/08/03 11:51:59;;;;;;;9.88;3.22;;;;;;;17.23;100.00;99853.59;5031076;28;20025;-79
2023/08/03 11:54:25;;;;;;;8.55;2.60;;;;;;;17.36;100.00;99861.03;5030472;28;20083;-75
2023/08/03 11:56:51;;;;;;;8.75;2.03;;;;;;;17.36;100.00;99863.75;5032682;28;20108;-75
2023/08/03 11:59:16;;;;;;;5.70;1.63;;;;;;;17.26;100.00;99878.41;5033189;28;20075;-76
2023/08/03 12:01:46;;;;;;;5.45;1.73;;;;;;;17.20;100.00;99897.91;5028915;28;20483;-79
2023/08/03 12:04:12;;;;;;;7.43;1.98;;;;;;;17.15;100.00;99885.09;5028988;28;20034;-77
2023/08/03 12:06:54;;;;;;;7.22;1.70;;;;;;;17.05;100.00;99901.63;5033300;28;20144;-75
2023/08/03 12:09:21;;;;;;;4.72;1.70;;;;;;;16.98;100.00;99918.38;5037210;28;20037;-76
2023/08/03 12:11:47;;;;;;;4.68;1.67;;;;;;;16.91;100.00;99915.16;5016270;28;20457;-77
2023/08/03 12:14:12;;;;;;;4.45;1.60;;;;;;;16.92;100.00;99927.72;5013248;28;20129;-76
2023/08/03 12:16:38;;;;;;;3.70;1.50;;;;;;;16.83;100.00;99939.28;5026508;28;20028;-75
2023/08/03 12:19:07;;;;;;;3.63;1.30;;;;;;;16.78;100.00;99947.50;5032361;28;20076;-75
2023/08/03 12:21:42;;;;;;;3.08;1.40;;;;;;;16.75;100.00;99966.41;5033213;28;20094;-75
2023/08/03 12:24:08;;;;;;;4.82;1.30;;;;;;;16.67;100.00;99973.31;5031771;28;20129;-73
2023/08/03 12:26:34;;;;;;;2.63;1.20;;;;;;;16.55;100.00;99975.63;5031890;28;20528;-74
2023/08/03 12:29:01;;;;;;;4.18;1.20;;;;;;;16.56;100.00;99974.50;5032226;28;20021;-75
2023/08/03 12:31:30;;;;;;;4.60;1.33;;;;;;;16.40;100.00;99993.75;5033000;28;20033;-76
2023/08/03 12:33:56;;;;;;;3.20;1.33;;;;;;;16.44;100.00;99999.44;5031583;28;20111;-75
2023/08/03 12:36:21;;;;;;;4.68;1.63;;;;;;;16.40;100.00;99998.41;5032436;28;20056;-75
2023/08/03 12:38:46;;;;;;;4.07;1.58;;;;;;;16.41;100.00;99998.09;5032525;28;20108;-77
2023/08/03 12:41:13;;;;;;;3.63;1.50;;;;;;;16.45;100.00;100001.88;5037831;28;20029;-78
2023/08/03 12:43:39;;;;;;;3.75;1.67;;;;;;;16.42;100.00;100002.44;5049577;28;20073;-78
2023/08/03 12:46:04;;;;;;;5.68;1.85;;;;;;;16.52;100.00;100012.50;5037869;28;20037;-78
2023/08/03 12:48:29;;;;;;;6.72;2.10;;;;;;;16.54;100.00;100021.22;5033428;28;20034;-73
2023/08/03 12:50:55;;;;;;;5.75;2.08;;;;;;;16.55;100.00;100027.50;5032760;28;20124;-73
2023/08/03 12:53:20;;;;;;;5.10;2.35;;;;;;;16.59;100.00;100023.91;5032006;28;20495;-73
2023/08/03 12:55:45;;;;;;;6.30;1.98;;;;;;;16.66;100.00;100037.22;5031679;28;20030;-79
2023/08/03 12:58:11;;;;;;;5.47;2.10;;;;;;;16.69;100.00;100038.59;5044620;28;20044;-75
2023/08/03 13:00:37;;;;;;;9.43;2.30;;;;;;;16.73;100.00;100050.59;5048633;28;20392;-75
2023/08/03 13:03:03;;;;;;;5.28;2.00;;;;;;;16.78;100.00;100065.00;5028665;28;20152;-74
2023/08/03 13:05:31;;;;;;;7.47;2.25;;;;;;;16.76;100.00;100069.94;5038867;28;20060;-76
2023/08/03 13:07:57;;;;;;;7.07;2.40;;;;;;;16.78;100.00;100075.91;5035380;28;20083;-74
2023/08/03 13:10:22;;;;;;;6.88;2.50;;;;;;;16.82;100.00;100079.72;5030458;28;20435;-75
2023/08/03 13:12:47;;;;;;;5.93;2.45;;;;;;;16.85;100.00;100081.06;5030828;28;20037;-78
2023/08/03 13:15:13;;;;;;;7.25;2.47;;;;;;;16.90;100.00;100083.78;5031224;28;20040;-77
2023/08/03 13:17:38;;;;;;;6.53;2.22;;;;;;;16.99;100.00;100092.19;5031946;28;20067;-76
2023/08/03 13:20:06;;;;;;;7.25;2.20;;;;;;;16.93;100.00;100098.81;5030881;28;20112;-74
2023/08/03 13:22:31;;;;;;;6.15;2.22;;;;;;;16.97;100.00;100117.06;5031604;28;20025;-76
2023/08/03 13:24:56;;;;;;;8.57;2.38;;;;;;;17.03;100.00;100112.38;5027721;28;20034;-77
2023/08/03 13:27:25;;;;;;;9.40;2.85;;;;;;;17.08;100.00;100112.34;5030676;28;20037;-74
2023/08/03 13:29:51;;;;;;;9.32;2.75;;;;;;;17.10;100.00;100110.13;5037892;28;20602;-74
2023/08/03 13:32:17;;;;;;;8.98;2.92;;;;;;;17.10;100.00;100121.06;5034775;28;20033;-74
2023/08/03 13:34:42;;;;;;;11.57;3.13;;;;;;;17.21;100.00;100123.69;5031873;28;20036;-75
2023/08/03 13:37:08;;;;;;;16.40;4.07;;;;;;;17.26;100.00;100121.75;5032387;28;20543;-73
2023/08/03 13:39:33;;;;;;;13.77;3.50;;;;;;;17.29;100.00;100131.31;5031004;28;20041;-77
2023/08/03 13:41:59;;;;;;;11.45;3.40;;;;;;;17.30;100.00;100132.91;5030546;28;20033;-76
2023/08/03 13:44:24;;;;;;;12.48;3.53;;;;;;;17.36;100.00;100134.50;5031294;28;20036;-77
2023/08/03 13:46:50;;;;;;;17.30;3.60;;;;;;;17.44;100.00;100138.56;5030007;28;20049;-78
2023/08/03 13:49:15;;;;;;;14.70;3.47;;;;;;;17.50;100.00;100140.94;5016307;28;20480;-74
2023/08/03 13:51:40;;;;;;;11.20;3.10;;;;;;;17.60;100.00;100139.19;5016221;28;20049;-76
2023/08/03 13:54:05;;;;;;;13.73;3.88;;;;;;;17.69;100.00;100151.13;5018961;28;20480;-79
2023/08/03 13:56:31;;;;;;;15.07;4.00;;;;;;;17.77;100.00;100161.47;5035930;28;20044;-77
2023/08/03 13:58:56;;;;;;;18.13;4.80;;;;;;;17.85;100.00;100163.53;5035493;28;20134;-76
2023/08/03 14:01:22;;;;;;;11.80;3.60;;;;;;;17.92;100.00;100167.88;5024573;28;20054;-77
2023/08/03 14:03:47;;;;;;;12.55;3.45;;;;;;;17.97;100.00;100167.84;5048292;28;20037;-74
2023/08/03 14:06:12;;;;;;;17.48;4.07;;;;;;;17.99;100.00;100177.38;5035476;28;20033;-74
2023/08/03 14:08:38;;;;;;;14.35;3.20;;;;;;;18.02;100.00;100178.72;5034402;28;20508;-74
2023/08/03 14:11:04;;;;;;;13.52;3.80;;;;;;;18.15;100.00;100188.97;5035363;28;20072;-74
2023/08/03 14:13:29;;;;;;;15.52;4.05;;;;;;;18.16;100.00;100192.53;5033950;28;20037;-75
2023/08/03 14:15:55;;;;;;;12.45;3.58;;;;;;;18.11;100.00;100200.81;5035300;28;20037;-77
2023/08/03 14:18:20;;;;;;;13.13;3.53;;;;;;;18.05;100.00;100191.84;5035444;28;20033;-78
2023/08/03 14:20:46;;;;;;;12.10;3.70;;;;;;;18.03;100.00;100200.34;5036088;28;20112;-76
2023/08/03 14:23:12;;;;;;;13.23;3.55;;;;;;;18.19;100.00;100201.00;5032940;28;20041;-77
2023/08/03 14:25:37;;;;;;;11.27;3.45;;;;;;;18.36;100.00;100202.44;5035088;28;20065;-77
2023/08/03 14:28:03;;;;;;;8.52;3.03;;;;;;;18.38;100.00;100209.22;5034958;28;20499;-77
2023/08/03 14:30:28;;;;;;;13.57;2.92;;;;;;;18.40;100.00;100209.78;5028266;28;20029;-79
2023/08/03 14:32:53;;;;;;;12.38;3.22;;;;;;;18.44;100.00;100214.66;5032806;28;20183;-79
2023/08/03 14:35:19;;;;;;;10.05;2.70;;;;;;;18.42;100.00;100234.94;5026519;28;20040;-79
2023/08/03 14:37:44;;;;;;;12.70;2.97;;;;;;;18.50;100.00;100225.25;5034604;28;20108;-79
2023/08/03 14:40:10;;;;;;;10.23;2.55;;;;;;;18.57;100.00;100222.97;5023906;28;20029;-79
2023/08/03 14:42:35;;;;;;;9.63;2.55;;;;;;;18.73;100.00;100236.47;5031091;28;20025;-78
2023/08/03 14:45:01;;;;;;;14.00;3.03;;;;;;;18.70;100.00;100239.78;5015512;28;20030;-78
2023/08/03 14:47:27;;;;;;;9.43;2.58;;;;;;;18.50;100.00;100243.63;5031266;28;20053;-79
2023/08/03 14:49:52;;;;;;;9.88;3.00;;;;;;;18.33;100.00;100255.88;5033699;28;20530;-79
2023/08/03 14:52:18;;;;;;;8.25;2.40;;;;;;;18.31;100.00;100262.72;5030173;28;20184;-77
2023/08/03 14:54:43;;;;;;;9.65;2.65;;;;;;;18.31;100.00;100258.06;5033960;28;20052;-78
2023/08/03 14:57:08;;;;;;;11.90;2.60;;;;;;;18.26;100.00;100262.81;5031251;28;20029;-78
2023/08/03 14:59:34;;;;;;;8.48;2.40;;;;;;;18.46;100.00;100262.56;5043755;28;20033;-77
2023/08/03 15:02:01;;;;;;;9.32;2.42;;;;;;;18.60;100.00;100268.97;5030638;28;20176;-77
2023/08/03 15:04:30;;;;;;;9.32;2.50;;;;;;;18.86;100.00;100268.66;5033895;28;20433;-77
2023/08/03 15:06:55;;;;;;;8.13;2.58;;;;;;;19.21;100.00;100274.75;5033262;28;20046;-77
2023/08/03 15:09:21;;;;;;;7.82;2.67;;;;;;;19.66;100.00;100275.13;5033843;28;20164;-77
2023/08/03 15:11:46;;;;;;;10.80;2.47;;;;;;;20.24;100.00;100277.72;5031734;28;20037;-76
2023/08/03 15:14:12;;;;;;;9.70;2.92;;;;;;;20.60;100.00;100280.56;5026857;28;20044;-78
2023/08/03 15:16:38;;;;;;;8.30;2.97;;;;;;;20.38;100.00;100272.22;5025749;28;20472;-77
2023/08/03 15:19:03;;;;;;;7.75;2.33;;;;;;;20.06;100.00;100287.66;5027608;28;20046;-77
2023/08/03 15:21:30;;;;;;;8.48;2.33;;;;;;;19.83;100.00;100282.03;5033044;28;20026;-76
2023/08/03 15:23:57;;;;;;;8.52;2.17;;;;;;;19.62;100.00;100295.25;5030100;28;20053;-76
2023/08/03 15:26:22;;;;;;;7.93;2.20;;;;;;;19.60;100.00;100292.00;5040979;28;20029;-75
2023/08/03 15:28:48;;;;;;;7.78;2.35;;;;;;;19.65;100.00;100295.47;5054489;28;20070;-74
2023/08/03 15:31:15;;;;;;;11.65;2.58;;;;;;;20.27;100.00;100293.59;5032932;28;20400;-77
2023/08/03 15:33:40;;;;;;;8.60;2.05;;;;;;;20.64;100.00;100302.78;5034873;28;20052;-74
2023/08/03 15:36:08;;;;;;;8.98;2.50;;;;;;;20.69;100.00;100306.25;5034088;28;20029;-72
2023/08/03 15:38:36;;;;;;;5.97;2.22;;;;;;;20.50;100.00;100317.34;5032710;28;20048;-73
2023/08/03 15:41:02;;;;;;;9.23;2.30;;;;;;;20.35;100.00;100320.34;5030857;28;20392;-73
2023/08/03 15:43:33;;;;;;;8.40;2.42;;;;;;;20.36;100.00;100325.56;5033719;28;20365;-74
2023/08/03 15:46:05;;;;;;;11.60;3.05;;;;;;;20.59;100.00;100325.66;5039161;28;20029;-73
2023/08/03 15:48:32;;;;;;;6.43;2.17;;;;;;;20.58;100.00;100329.56;5048962;28;20029;-72
2023/08/03 15:50:58;;;;;;;7.20;2.42;;;;;;;20.68;100.00;100337.63;5033006;28;20041;-74
2023/08/03 15:53:25;;;;;;;8.20;2.45;;;;;;;20.47;100.00;100336.34;5032801;28;20396;-77
2023/08/03 15:55:55;;;;;;;6.28;2.08;;;;;;;20.15;100.00;100335.28;5032469;28;20176;-73
2023/08/03 15:58:21;;;;;;;5.80;1.90;;;;;;;20.33;100.00;100334.41;5031721;28;20586;-76
2023/08/03 16:00:47;;;;;;;5.75;1.92;;;;;;;20.23;100.00;100339.28;5028993;28;20028;-76
2023/08/03 16:03:12;;;;;;;7.65;2.22;;;;;;;19.87;100.00;100343.47;5031725;28;20049;-76
2023/08/03 16:05:37;;;;;;;8.63;1.92;;;;;;;19.46;100.00;100353.13;5032361;28;20036;-75
2023/08/03 16:08:03;;;;;;;7.65;2.17;;;;;;;19.20;100.00;100358.13;5016237;28;20029;-74
2023/08/03 16:10:29;;;;;;;6.45;2.15;;;;;;;18.99;100.00;100354.03;5032993;28;20034;-73
2023/08/03 16:12:54;;;;;;;6.28;1.88;;;;;;;18.87;100.00;100362.69;5032425;28;20029;-73
2023/08/03 16:15:19;;;;;;;6.30;2.13;;;;;;;18.71;100.00;100364.75;5029553;28;20029;-75
